createdAt,value
2017-02-22T00:02:13.241Z,47.8
2017-02-22T00:04:45.883Z,47.7
2017-02-22T00:07:18.531Z,47.7
2017-02-22T00:09:51.189Z,47.6
2017-02-22T00:12:23.828Z,47.6
2017-02-22T00:14:56.877Z,47.6
2017-02-22T00:17:29.483Z,47.6
2017-02-22T00:20:02.541Z,47.6
2017-02-22T00:22:36.060Z,47.6
2017-02-22T00:25:08.731Z,47.6
2017-02-22T00:27:41.448Z,47.6
2017-02-22T00:30:14.068Z,47.6
2017-02-22T00:32:47.615Z,47.6
2017-02-22T00:35:21.738Z,47.5
2017-02-22T00:37:54.929Z,47.5
2017-02-22T00:40:27.690Z,47.6
2017-02-22T00:43:00.347Z,47.6
2017-02-22T00:45:34.249Z,47.5
2017-02-22T00:48:07.731Z,47.5
2017-02-22T00:50:40.379Z,47.5
2017-02-22T00:53:13.450Z,47.6
2017-02-22T00:55:46.110Z,47.5
2017-02-22T00:58:18.813Z,47.6
2017-02-22T01:00:51.481Z,47.5
2017-02-22T01:03:24.146Z,47.5
2017-02-22T01:05:56.798Z,47.5
2017-02-22T01:08:29.466Z,47.6
2017-02-22T01:11:02.631Z,47.6
2017-02-22T01:13:35.272Z,47.6
2017-02-22T01:16:08.789Z,47.6
2017-02-22T01:18:41.444Z,47.6
2017-02-22T01:21:14.085Z,47.7
2017-02-22T01:23:46.730Z,47.8
2017-02-22T01:26:19.806Z,47.7
2017-02-22T01:28:52.440Z,47.7
2017-02-22T01:31:25.910Z,47.7
2017-02-22T01:33:58.546Z,47.7
2017-02-22T01:36:31.613Z,47.7
2017-02-22T01:39:04.741Z,47.7
2017-02-22T01:41:37.412Z,47.6
2017-02-22T01:44:10.064Z,47.6
2017-02-22T01:46:42.794Z,47.7
2017-02-22T01:49:15.436Z,47.7
2017-02-22T01:51:48.276Z,47.7
2017-02-22T01:54:20.913Z,47.7
2017-02-22T01:56:54.434Z,47.7
2017-02-22T01:59:27.104Z,47.7
2017-02-22T02:01:59.734Z,47.6
2017-02-22T02:04:32.850Z,47.7
2017-02-22T02:07:05.481Z,47.6
2017-02-22T02:09:38.143Z,47.6
2017-02-22T02:12:10.983Z,47.6
2017-02-22T02:14:44.048Z,47.6
2017-02-22T02:17:16.889Z,47.6
2017-02-22T02:19:49.996Z,47.5
2017-02-22T02:22:22.650Z,47.5
2017-02-22T02:24:55.298Z,47.5
2017-02-22T02:27:27.993Z,47.4
2017-02-22T02:30:00.629Z,47.5
2017-02-22T02:32:34.539Z,47.4
2017-02-22T02:35:07.600Z,47.4
2017-02-22T02:37:40.235Z,47.4
2017-02-22T02:40:12.843Z,47.4
2017-02-22T02:42:45.522Z,47.3
2017-02-22T02:45:18.174Z,47.3
2017-02-22T02:47:50.846Z,47.3
2017-02-22T02:50:23.549Z,47.3
2017-02-22T02:52:56.171Z,47.3
2017-02-22T02:55:29.240Z,47.4
2017-02-22T02:58:01.887Z,47.3
2017-02-22T03:01:07.007Z,47.3
2017-02-22T03:03:39.844Z,47.3
2017-02-22T03:06:12.885Z,47.3
2017-02-22T03:08:45.495Z,47.3
2017-02-22T03:11:18.114Z,47.3
2017-02-22T03:13:51.203Z,47.3
2017-02-22T03:16:23.851Z,47.3
2017-02-22T03:18:56.491Z,47.3
2017-02-22T03:21:29.132Z,47.3
2017-02-22T03:24:01.988Z,47.3
2017-02-22T03:26:35.506Z,47.4
2017-02-22T03:29:08.598Z,47.3
2017-02-22T03:31:41.234Z,47.4
2017-02-22T03:34:13.907Z,47.4
2017-02-22T03:36:46.531Z,47.4
2017-02-22T03:39:19.147Z,47.4
2017-02-22T03:41:52.198Z,47.4
2017-02-22T03:44:24.850Z,47.4
2017-02-22T03:46:57.894Z,47.4
2017-02-22T03:49:30.961Z,47.4
2017-02-22T03:52:03.586Z,47.4
2017-02-22T03:54:36.224Z,47.4
2017-02-22T03:57:09.257Z,47.4
2017-02-22T03:59:41.917Z,47.4
2017-02-22T04:02:14.564Z,47.4
2017-02-22T04:04:47.616Z,47.4
2017-02-22T04:07:20.255Z,47.4
2017-02-22T04:09:52.869Z,47.4
2017-02-22T04:12:26.328Z,47.4
2017-02-22T04:14:59.383Z,47.4
2017-02-22T04:17:31.991Z,47.4
2017-02-22T04:20:04.642Z,47.4
2017-02-22T04:22:37.256Z,47.5
2017-02-22T04:25:10.340Z,47.4
2017-02-22T04:27:42.998Z,47.5
2017-02-22T04:30:16.051Z,47.5
2017-02-22T04:32:48.711Z,47.5
2017-02-22T04:35:21.811Z,47.5
2017-02-22T04:37:54.441Z,47.5
2017-02-22T04:40:27.070Z,47.5
2017-02-22T04:42:59.720Z,47.5
2017-02-22T04:45:32.332Z,47.5
2017-02-22T04:48:04.992Z,47.6
2017-02-22T04:50:37.597Z,47.6
2017-02-22T04:53:10.255Z,47.6
2017-02-22T04:55:42.862Z,47.6
2017-02-22T04:58:15.485Z,47.6
2017-02-22T05:00:48.099Z,47.6
2017-02-22T05:03:20.728Z,47.6
2017-02-22T05:05:53.337Z,47.6
2017-02-22T05:08:25.964Z,47.6
2017-02-22T05:10:58.607Z,47.6
2017-02-22T05:13:31.694Z,47.6
2017-02-22T05:16:04.560Z,47.6
2017-02-22T05:18:37.151Z,47.6
2017-02-22T05:21:11.062Z,47.6
2017-02-22T05:23:44.090Z,47.6
2017-02-22T05:26:17.144Z,47.6
2017-02-22T05:28:50.631Z,47.7
2017-02-22T05:31:23.676Z,47.7
2017-02-22T05:33:56.302Z,47.7
2017-02-22T05:36:28.963Z,47.7
2017-02-22T05:39:02.227Z,47.7
2017-02-22T05:41:35.301Z,47.7
2017-02-22T05:44:07.955Z,47.7
2017-02-22T05:46:40.611Z,47.8
2017-02-22T05:49:13.666Z,47.7
2017-02-22T05:51:46.334Z,47.8
2017-02-22T05:54:19.414Z,47.8
2017-02-22T05:56:52.467Z,47.9
2017-02-22T05:59:25.536Z,47.9
2017-02-22T06:01:58.180Z,47.9
2017-02-22T06:04:31.266Z,48
2017-02-22T06:07:04.342Z,48
2017-02-22T06:09:37.394Z,48
2017-02-22T06:12:10.448Z,48
2017-02-22T06:14:43.474Z,48
2017-02-22T06:17:16.103Z,48
2017-02-22T06:19:48.769Z,48
2017-02-22T06:22:21.835Z,48.1
2017-02-22T06:24:54.870Z,48.1
2017-02-22T06:27:27.497Z,48.1
2017-02-22T06:30:00.120Z,48.1
2017-02-22T06:32:33.174Z,48.1
2017-02-22T06:35:05.827Z,48.2
2017-02-22T06:37:38.887Z,48.2
2017-02-22T06:40:11.981Z,48.2
2017-02-22T06:42:44.648Z,48.2
2017-02-22T06:45:17.308Z,48.2
2017-02-22T06:47:50.373Z,48.2
2017-02-22T06:50:23.017Z,48.2
2017-02-22T06:52:55.684Z,48.2
2017-02-22T06:55:28.738Z,48.2
2017-02-22T06:58:01.786Z,48.2
2017-02-22T07:00:34.827Z,48.2
2017-02-22T07:03:07.430Z,48.2
2017-02-22T07:05:40.039Z,48.2
2017-02-22T07:08:12.668Z,48.3
2017-02-22T07:10:45.336Z,48.2
2017-02-22T07:13:17.999Z,48.3
2017-02-22T07:15:50.660Z,48.2
2017-02-22T07:18:23.284Z,48.2
2017-02-22T07:20:56.328Z,48.3
2017-02-22T07:23:29.132Z,48.3
2017-02-22T07:26:02.207Z,48.3
2017-02-22T07:28:34.828Z,48.4
2017-02-22T07:31:07.440Z,48.3
2017-02-22T07:33:40.107Z,48.3
2017-02-22T07:36:12.760Z,48.4
2017-02-22T07:38:45.411Z,48.3
2017-02-22T07:41:18.457Z,48.4
2017-02-22T07:43:51.525Z,48.4
2017-02-22T07:46:24.183Z,48.4
2017-02-22T07:48:56.821Z,48.4
2017-02-22T07:51:29.444Z,48.5
2017-02-22T07:54:02.491Z,48.4
2017-02-22T07:56:35.117Z,48.5
2017-02-22T07:59:08.171Z,48.5
2017-02-22T08:01:40.809Z,48.5
2017-02-22T08:04:13.905Z,48.5
2017-02-22T08:06:46.965Z,49.1
2017-02-22T08:09:19.630Z,49.1
2017-02-22T08:11:52.286Z,49.1
2017-02-22T08:14:24.916Z,49.1
2017-02-22T08:16:58.000Z,49.2
2017-02-22T08:19:31.058Z,49.1
2017-02-22T08:22:04.135Z,48.9
2017-02-22T08:24:36.790Z,49.1
2017-02-22T08:27:09.907Z,49
2017-02-22T08:29:42.552Z,49
2017-02-22T08:32:15.190Z,49
2017-02-22T08:34:47.806Z,49.5
2017-02-22T08:37:20.465Z,49.7
2017-02-22T08:39:53.148Z,49.9
2017-02-22T08:42:25.810Z,50.1
2017-02-22T08:44:58.447Z,50.3
2017-02-22T08:47:31.104Z,50.4
2017-02-22T08:50:04.598Z,50.6
2017-02-22T08:52:37.269Z,50.4
2017-02-22T08:55:10.314Z,50.7
2017-02-22T08:57:42.947Z,50.6
2017-02-22T09:00:15.576Z,50.6
2017-02-22T09:02:48.230Z,50.6
2017-02-22T09:05:20.874Z,50.6
2017-02-22T09:07:53.941Z,50.6
2017-02-22T09:10:27.187Z,50.5
2017-02-22T09:12:59.830Z,50.5
2017-02-22T09:15:32.470Z,50.5
2017-02-22T09:18:05.094Z,50.4
2017-02-22T09:20:37.732Z,50.4
2017-02-22T09:23:10.764Z,50.4
2017-02-22T09:25:43.417Z,50.3
2017-02-22T09:28:16.919Z,50.3
2017-02-22T09:30:49.961Z,50.4
2017-02-22T09:33:23.027Z,50.3
2017-02-22T09:35:56.490Z,50.3
2017-02-22T09:38:29.097Z,50.3
2017-02-22T09:41:02.142Z,50.1
2017-02-22T09:43:34.785Z,50
2017-02-22T09:46:07.828Z,50
2017-02-22T09:48:40.463Z,49.8
2017-02-22T09:51:13.073Z,49.8
2017-02-22T09:53:46.144Z,49.7
2017-02-22T09:56:18.795Z,49.7
2017-02-22T09:58:51.459Z,49.7
2017-02-22T10:01:24.096Z,49.6
2017-02-22T10:03:56.742Z,49.6
2017-02-22T10:06:30.272Z,49.6
2017-02-22T10:09:03.323Z,49.6
2017-02-22T10:11:36.783Z,49.7
2017-02-22T10:14:09.377Z,49.8
2017-02-22T10:16:42.019Z,49.7
2017-02-22T10:19:14.640Z,49.8
2017-02-22T10:21:47.239Z,49.8
2017-02-22T10:24:20.278Z,49.8
2017-02-22T10:26:53.312Z,49.8
2017-02-22T10:29:25.930Z,49.8
2017-02-22T10:31:58.768Z,49.7
2017-02-22T10:34:31.390Z,49.7
2017-02-22T10:37:04.025Z,49.7
2017-02-22T10:39:36.645Z,49.6
2017-02-22T10:42:09.675Z,49.6
2017-02-22T10:44:42.739Z,49.5
2017-02-22T10:47:15.810Z,49.5
2017-02-22T10:49:48.441Z,49.5
2017-02-22T10:52:21.081Z,49.4
2017-02-22T10:54:53.712Z,49.4
2017-02-22T10:57:26.375Z,49.3
2017-02-22T10:59:59.036Z,49.3
2017-02-22T11:02:31.705Z,49.3
2017-02-22T11:05:04.344Z,49.2
2017-02-22T11:07:37.419Z,49.2
2017-02-22T11:10:10.033Z,49.2
2017-02-22T11:12:42.658Z,49.2
2017-02-22T11:15:15.305Z,49.1
2017-02-22T11:17:48.387Z,49.1
2017-02-22T11:20:20.997Z,49.1
2017-02-22T11:22:53.837Z,49
2017-02-22T11:25:26.451Z,49
2017-02-22T11:27:59.087Z,49
2017-02-22T11:30:31.718Z,49
2017-02-22T11:33:04.345Z,49
2017-02-22T11:35:37.389Z,48.9
2017-02-22T11:38:10.441Z,48.9
2017-02-22T11:40:43.097Z,48.9
2017-02-22T11:43:15.740Z,48.9
2017-02-22T11:45:48.364Z,48.9
2017-02-22T11:48:20.987Z,48.9
2017-02-22T11:50:53.633Z,48.4
2017-02-22T11:53:26.702Z,47
2017-02-22T11:55:59.309Z,45.8
2017-02-22T11:58:32.786Z,45.3
2017-02-22T12:01:05.422Z,45
2017-02-22T12:03:38.030Z,44.6
2017-02-22T12:06:10.684Z,44.4
2017-02-22T12:08:43.732Z,44.5
2017-02-22T12:11:16.372Z,44.9
2017-02-22T12:13:49.027Z,46.3
2017-02-22T12:16:21.674Z,45.4
2017-02-22T12:18:54.740Z,44.9
2017-02-22T12:21:27.343Z,45.6
2017-02-22T12:23:59.955Z,45.7
2017-02-22T12:26:32.578Z,45.4
2017-02-22T12:29:05.194Z,44.7
2017-02-22T12:31:37.812Z,44.4
2017-02-22T12:34:10.434Z,44.5
2017-02-22T12:36:43.049Z,43.9
2017-02-22T12:39:15.713Z,43.6
2017-02-22T12:41:48.349Z,43.5
2017-02-22T12:44:21.388Z,43.4
2017-02-22T12:46:54.016Z,43.7
2017-02-22T12:49:26.655Z,43.7
2017-02-22T12:51:59.280Z,43.8
2017-02-22T12:54:31.936Z,43.4
2017-02-22T12:57:05.013Z,43.2
2017-02-22T12:59:38.057Z,42.9
2017-02-22T13:02:11.092Z,42.6
2017-02-22T13:04:43.756Z,42.4
2017-02-22T13:07:16.422Z,42.3
2017-02-22T13:09:49.053Z,42.1
2017-02-22T13:12:21.679Z,41.9
2017-02-22T13:14:54.325Z,41.9
2017-02-22T13:17:26.974Z,41.7
2017-02-22T13:19:59.607Z,41.9
2017-02-22T13:22:32.259Z,42.9
2017-02-22T13:25:04.907Z,43.3
2017-02-22T13:27:37.574Z,43.9
2017-02-22T13:30:10.226Z,44.7
2017-02-22T13:32:42.856Z,44.9
2017-02-22T13:35:15.504Z,45.1
2017-02-22T13:37:48.173Z,45.3
2017-02-22T13:40:20.788Z,45.5
2017-02-22T13:42:53.432Z,45.6
2017-02-22T13:45:26.526Z,46
2017-02-22T13:47:59.591Z,45.8
2017-02-22T13:50:32.227Z,45.9
2017-02-22T13:53:04.856Z,46
2017-02-22T13:55:37.499Z,46
2017-02-22T13:58:10.553Z,46.1
2017-02-22T14:00:43.177Z,46.2
2017-02-22T14:03:15.791Z,46.2
2017-02-22T14:05:48.817Z,46.2
2017-02-22T14:08:21.455Z,46.3
2017-02-22T14:10:54.096Z,45.6
2017-02-22T14:13:26.714Z,45.6
2017-02-22T14:15:59.330Z,46.1
2017-02-22T14:18:32.366Z,46.4
2017-02-22T14:21:05.010Z,46.6
2017-02-22T14:23:37.644Z,46.5
2017-02-22T14:26:10.266Z,45.3
2017-02-22T14:28:42.885Z,45.3
2017-02-22T14:31:15.531Z,44.6
2017-02-22T14:33:48.157Z,43.6
2017-02-22T14:36:21.211Z,43.1
2017-02-22T14:38:53.829Z,42.7
2017-02-22T14:41:26.902Z,42.4
2017-02-22T14:43:59.509Z,43.4
2017-02-22T14:46:32.616Z,44.5
2017-02-22T14:49:05.685Z,45.1
2017-02-22T14:51:38.727Z,45.3
2017-02-22T14:54:11.395Z,45.6
2017-02-22T14:56:43.994Z,45.8
2017-02-22T14:59:17.027Z,45.9
2017-02-22T15:01:49.670Z,46
2017-02-22T15:04:22.498Z,46.2
2017-02-22T15:06:55.529Z,46.2
2017-02-22T15:09:28.176Z,46.2
2017-02-22T15:12:01.653Z,46.3
2017-02-22T15:14:34.283Z,46.4
2017-02-22T15:17:07.780Z,46.6
2017-02-22T15:19:40.396Z,46.6
2017-02-22T15:22:13.030Z,46.5
2017-02-22T15:24:45.886Z,46.6
2017-02-22T15:27:18.519Z,46.5
2017-02-22T15:29:51.606Z,46.5
2017-02-22T15:32:24.271Z,46.5
2017-02-22T15:34:57.335Z,46.5
2017-02-22T15:37:30.398Z,46.5
2017-02-22T15:40:03.439Z,46.5
2017-02-22T15:42:36.903Z,46.5
2017-02-22T15:45:09.542Z,46.5
2017-02-22T15:47:42.188Z,46.5
2017-02-22T15:50:15.687Z,46.5
2017-02-22T15:52:48.335Z,46.6
2017-02-22T15:55:21.373Z,46.9
2017-02-22T15:57:53.997Z,46.7
2017-02-22T16:00:26.641Z,46.7
2017-02-22T16:02:59.685Z,46.8
2017-02-22T16:05:32.301Z,46.9
2017-02-22T16:08:05.992Z,47
2017-02-22T16:10:38.652Z,47
2017-02-22T16:13:11.292Z,47
2017-02-22T16:15:44.363Z,47.1
2017-02-22T16:18:17.427Z,46.9
2017-02-22T16:20:50.500Z,46.9
2017-02-22T16:23:23.151Z,46.9
2017-02-22T16:25:55.802Z,47
2017-02-22T16:28:28.647Z,46.9
2017-02-22T16:31:01.725Z,46.9
2017-02-22T16:33:34.795Z,46.8
2017-02-22T16:36:07.835Z,46.8
2017-02-22T16:38:40.876Z,47.1
2017-02-22T16:41:14.350Z,47.2
2017-02-22T16:43:46.990Z,45.8
2017-02-22T16:46:19.624Z,41.4
2017-02-22T16:48:53.112Z,42.4
2017-02-22T16:51:25.751Z,43.7
2017-02-22T16:53:58.381Z,44.5
2017-02-22T16:56:31.451Z,45
2017-02-22T16:59:04.128Z,45.2
2017-02-22T17:01:36.752Z,45.3
2017-02-22T17:04:09.413Z,45.4
2017-02-22T17:06:42.049Z,45.6
2017-02-22T17:09:15.158Z,45.9
2017-02-22T17:11:47.796Z,45.9
2017-02-22T17:14:20.419Z,45.9
2017-02-22T17:16:53.057Z,46
2017-02-22T17:19:25.678Z,46
2017-02-22T17:21:58.354Z,46
2017-02-22T17:24:31.409Z,46
2017-02-22T17:27:04.039Z,46
2017-02-22T17:29:36.658Z,46
2017-02-22T17:32:09.304Z,46
2017-02-22T17:34:41.982Z,46.1
2017-02-22T17:37:14.618Z,46.1
2017-02-22T17:39:47.268Z,46.1
2017-02-22T17:42:19.878Z,46.1
2017-02-22T17:44:52.501Z,46.1
2017-02-22T17:47:25.128Z,46.1
2017-02-22T17:49:58.246Z,46.1
2017-02-22T17:52:31.287Z,46.2
2017-02-22T17:55:04.336Z,46.2
2017-02-22T17:57:36.952Z,46.2
2017-02-22T18:00:09.705Z,46.2
2017-02-22T18:02:42.335Z,46.2
2017-02-22T18:05:15.432Z,46.2
2017-02-22T18:07:48.076Z,46.2
2017-02-22T18:10:21.197Z,46.2
2017-02-22T18:12:53.814Z,46.2
2017-02-22T18:15:26.869Z,46.2
2017-02-22T18:17:59.484Z,46.2
2017-02-22T18:20:32.106Z,46.2
2017-02-22T18:23:04.730Z,46.2
2017-02-22T18:25:37.374Z,46.2
2017-02-22T18:28:10.391Z,46.2
2017-02-22T18:30:43.440Z,46.2
2017-02-22T18:33:16.085Z,46.2
2017-02-22T18:35:48.744Z,46.2
2017-02-22T18:38:21.400Z,46.2
2017-02-22T18:40:54.023Z,46.2
2017-02-22T18:43:26.646Z,46.2
2017-02-22T18:45:59.286Z,46.1
2017-02-22T18:48:31.907Z,46.2
2017-02-22T18:51:04.551Z,46.2
2017-02-22T18:53:37.168Z,46.2
2017-02-22T18:56:09.812Z,46.2
2017-02-22T18:58:42.462Z,46.2
2017-02-22T19:01:15.083Z,46.2
2017-02-22T19:03:48.118Z,46.1
2017-02-22T19:06:21.643Z,46.1
2017-02-22T19:08:54.294Z,46.1
2017-02-22T19:11:26.902Z,46.2
2017-02-22T19:13:59.527Z,46.3
2017-02-22T19:16:32.600Z,46.3
2017-02-22T19:19:05.210Z,46.3
2017-02-22T19:21:38.270Z,46.4
2017-02-22T19:24:11.359Z,46.3
2017-02-22T19:26:43.989Z,46.4
2017-02-22T19:29:16.602Z,46.4
2017-02-22T19:31:49.234Z,46.4
2017-02-22T19:34:21.851Z,46.4
2017-02-22T19:36:54.478Z,46.5
2017-02-22T19:39:27.954Z,46.6
2017-02-22T19:42:01.036Z,46.4
2017-02-22T19:44:33.703Z,46.4
2017-02-22T19:47:06.321Z,46.5
2017-02-22T19:49:38.951Z,46.5
2017-02-22T19:52:11.985Z,46.5
2017-02-22T19:54:44.596Z,46.4
2017-02-22T19:57:18.082Z,46.3
2017-02-22T19:59:50.703Z,46.2
2017-02-22T20:02:23.356Z,46.1
2017-02-22T20:04:56.000Z,46
2017-02-22T20:07:28.634Z,46
2017-02-22T20:10:02.104Z,46
2017-02-22T20:12:35.141Z,46
2017-02-22T20:15:08.190Z,45.9
2017-02-22T20:17:41.223Z,45.9
2017-02-22T20:20:13.856Z,45.8
2017-02-22T20:22:46.494Z,45.8
2017-02-22T20:25:19.116Z,45.8
2017-02-22T20:27:51.768Z,45.7
2017-02-22T20:30:24.397Z,45.7
2017-02-22T20:32:57.452Z,45.6
2017-02-22T20:35:30.081Z,45.6
2017-02-22T20:38:02.705Z,45.6
2017-02-22T20:40:35.360Z,45.6
2017-02-22T20:43:07.979Z,45.5
2017-02-22T20:45:40.990Z,45.5
2017-02-22T20:48:13.623Z,45.5
2017-02-22T20:50:46.261Z,45.5
2017-02-22T20:53:18.883Z,45.4
2017-02-22T20:55:51.517Z,45.4
2017-02-22T20:58:24.165Z,45.4
2017-02-22T21:00:57.617Z,45.4
2017-02-22T21:03:30.276Z,45.4
2017-02-22T21:06:03.744Z,45.3
2017-02-22T21:08:37.220Z,45.3
2017-02-22T21:11:09.854Z,45.3
2017-02-22T21:13:42.897Z,45.3
2017-02-22T21:16:15.944Z,45.3
2017-02-22T21:18:48.993Z,45.3
2017-02-22T21:21:21.605Z,45.3
2017-02-22T21:23:55.486Z,45.2
2017-02-22T21:26:28.131Z,45.3
2017-02-22T21:29:01.185Z,45.3
2017-02-22T21:31:33.799Z,45.3
2017-02-22T21:34:06.438Z,45.2
2017-02-22T21:36:39.483Z,45.2
2017-02-22T21:39:12.125Z,45.2
2017-02-22T21:41:45.188Z,45.2
2017-02-22T21:44:18.777Z,45.2
2017-02-22T21:46:51.407Z,45.2
2017-02-22T21:49:24.030Z,45.2
2017-02-22T21:51:56.672Z,45.2
2017-02-22T21:54:29.333Z,45.2
2017-02-22T21:57:02.405Z,45.1
2017-02-22T21:59:35.040Z,45.1
2017-02-22T22:02:07.688Z,45.1
2017-02-22T22:04:41.171Z,45.1
2017-02-22T22:07:13.794Z,45.1
2017-02-22T22:09:47.261Z,45.1
2017-02-22T22:12:19.922Z,45.1
2017-02-22T22:14:52.555Z,45.1
2017-02-22T22:17:25.601Z,45.1
2017-02-22T22:21:02.782Z,45.1
2017-02-22T22:23:35.753Z,45.1
2017-02-22T22:26:08.731Z,45.1
2017-02-22T22:28:41.690Z,45.1
2017-02-22T22:31:14.668Z,45.1
2017-02-22T22:33:47.195Z,45.1
2017-02-22T22:36:19.741Z,45
2017-02-22T22:38:52.303Z,45
2017-02-22T22:41:25.245Z,45
2017-02-22T22:43:57.787Z,45
2017-02-22T22:46:30.334Z,45
2017-02-22T22:49:03.325Z,45
2017-02-22T22:51:35.857Z,45
2017-02-22T22:54:08.414Z,45
2017-02-22T22:56:41.391Z,45
2017-02-22T22:59:13.969Z,45
2017-02-22T23:01:46.512Z,45
2017-02-22T23:04:19.067Z,44.9
2017-02-22T23:06:51.618Z,45
2017-02-22T23:09:24.162Z,44.9
2017-02-22T23:11:57.105Z,44.9
2017-02-22T23:14:29.651Z,44.9
2017-02-22T23:17:02.609Z,44.9
2017-02-22T23:19:35.133Z,44.9
2017-02-22T23:22:07.679Z,44.9
2017-02-22T23:24:40.630Z,44.9
2017-02-22T23:27:13.189Z,44.9
2017-02-22T23:29:45.744Z,44.9
2017-02-22T23:32:18.691Z,44.9
2017-02-22T23:34:51.637Z,44.9
2017-02-22T23:37:24.179Z,44.9
2017-02-22T23:39:57.155Z,44.9
2017-02-22T23:42:29.687Z,44.9
2017-02-22T23:45:02.671Z,44.9
2017-02-22T23:47:35.200Z,44.9
2017-02-22T23:50:07.795Z,44.9
2017-02-22T23:52:40.753Z,44.9
2017-02-22T23:55:13.294Z,44.8
2017-02-22T23:57:45.831Z,44.8
